Time;durP1;ratioP1;P1;durP2;ratioP2;P2;SDS_P1;SDS_P2;PMS_P1;PMS_P2;Temp;Humidity;BMP_temperature;BMP_pressure;BME280_temperature;BME280_humidity;BME280_pressure;Samples;Min_cycle;Max_cycle;Signal;HPM_P1;HPM_P2
2022/02/17 00:01:52;;;;;;;3.67;1.17;;;;;12.60;99167.00;;;;10012055;29;20217;-77
2022/02/17 00:06:55;;;;;;;2.50;1.13;;;;;12.60;99165.00;;;;10008993;29;20210;-76
2022/02/17 00:11:57;;;;;;;5.37;1.30;;;;;12.50;99169.00;;;;9989577;29;20225;-76
2022/02/17 00:16:58;;;;;;;7.33;2.13;;;;;12.50;99174.00;;;;9989768;29;20248;-76
2022/02/17 00:22:00;;;;;;;7.50;1.80;;;;;12.50;99206.00;;;;9988941;29;20240;-76
2022/02/17 00:27:03;;;;;;;10.63;3.40;;;;;12.40;99213.00;;;;9988721;29;20243;-76
2022/02/17 00:32:05;;;;;;;11.23;2.37;;;;;12.40;99219.00;;;;10019354;29;20244;-76
2022/02/17 00:37:07;;;;;;;13.93;3.20;;;;;12.30;99208.00;;;;10018025;29;20292;-76
2022/02/17 00:42:09;;;;;;;19.17;4.67;;;;;12.30;99247.00;;;;10027139;29;20680;-76
2022/02/17 00:47:13;;;;;;;21.80;3.67;;;;;12.20;99283.00;;;;10042456;29;20201;-76
2022/02/17 00:52:17;;;;;;;17.00;4.53;;;;;12.00;99275.00;;;;10012564;29;20227;-76
2022/02/17 00:57:19;;;;;;;15.37;3.70;;;;;11.90;99300.00;;;;10027683;29;20209;-76
2022/02/17 01:02:22;;;;;;;15.23;3.57;;;;;11.80;99318.00;;;;10012799;29;20217;-76
2022/02/17 01:07:24;;;;;;;23.23;4.67;;;;;11.70;99348.00;;;;9989237;29;20219;-76
2022/02/17 01:12:27;;;;;;;19.33;4.83;;;;;11.60;99338.00;;;;9993172;29;20280;-76
2022/02/17 01:17:30;;;;;;;17.97;4.57;;;;;11.50;99342.00;;;;9995869;29;20209;-76
2022/02/17 01:22:32;;;;;;;20.37;4.50;;;;;11.50;99375.00;;;;10052522;29;20260;-76
2022/02/17 01:27:33;;;;;;;20.47;4.83;;;;;11.40;99391.00;;;;10071653;29;20272;-76
2022/02/17 01:32:35;;;;;;;25.20;5.10;;;;;11.30;99380.00;;;;10056328;29;20200;-76
2022/02/17 01:37:38;;;;;;;24.57;5.60;;;;;11.20;99397.00;;;;10008617;29;20220;-75
2022/02/17 01:42:41;;;;;;;35.63;6.63;;;;;11.20;99383.00;;;;10018136;29;20601;-76
2022/02/17 01:47:44;;;;;;;27.30;5.73;;;;;11.30;99432.00;;;;10032741;29;20273;-76
2022/02/17 01:52:46;;;;;;;22.03;5.67;;;;;11.30;99447.00;;;;10047419;29;20193;-76
2022/02/17 01:57:48;;;;;;;28.10;5.67;;;;;11.30;99447.00;;;;10017161;29;20723;-76
2022/02/17 02:02:59;;;;;;;27.23;5.13;;;;;11.30;99470.00;;;;10033175;29;20235;-77
2022/02/17 02:08:21;;;;;;;34.70;6.97;;;;;11.20;99468.00;;;;10008785;29;20198;-77
2022/02/17 02:13:24;;;;;;;22.80;4.83;;;;;11.20;99491.00;;;;10010198;29;20198;-77
2022/02/17 02:18:27;;;;;;;26.90;5.27;;;;;11.20;99492.00;;;;10023108;29;20300;-77
2022/02/17 02:23:33;;;;;;;28.33;5.17;;;;;11.00;99493.00;;;;10032123;29;20221;-77
2022/02/17 02:28:40;;;;;;;23.97;5.63;;;;;10.90;99514.00;;;;10047218;29;20199;-77
2022/02/17 02:33:45;;;;;;;34.03;5.90;;;;;10.90;99511.00;;;;10031834;29;20245;-77
2022/02/17 02:38:47;;;;;;;30.57;6.77;;;;;10.90;99509.00;;;;10016413;29;20576;-77
2022/02/17 02:43:49;;;;;;;22.50;4.40;;;;;10.70;99513.00;;;;10015764;29;20653;-77
2022/02/17 02:48:53;;;;;;;34.03;6.47;;;;;10.60;99528.00;;;;10016099;29;20193;-77
2022/02/17 02:53:55;;;;;;;26.53;5.53;;;;;10.50;99531.00;;;;10046208;29;20317;-77
2022/02/17 02:59:01;;;;;;;22.17;5.13;;;;;10.30;99521.00;;;;10016005;29;20248;-77
2022/02/17 03:04:04;;;;;;;18.97;5.67;;;;;10.20;99529.00;;;;10030733;29;20668;-77
2022/02/17 03:09:05;;;;;;;28.47;6.07;;;;;10.10;99550.00;;;;10015136;29;20253;-77
2022/02/17 03:14:09;;;;;;;32.53;6.07;;;;;10.10;99571.00;;;;10030562;29;20204;-77
2022/02/17 03:19:13;;;;;;;32.00;6.73;;;;;10.00;99568.00;;;;10030245;29;20216;-77
2022/02/17 03:24:16;;;;;;;31.40;6.60;;;;;10.00;99600.00;;;;10014934;29;20304;-77
2022/02/17 03:29:18;;;;;;;36.53;6.83;;;;;9.90;99598.00;;;;10014647;29;20208;-77
2022/02/17 03:34:21;;;;;;;38.00;6.97;;;;;9.90;99612.00;;;;10013669;29;20213;-78
2022/02/17 03:39:23;;;;;;;26.53;6.17;;;;;9.90;99616.00;;;;10045067;29;20276;-77
2022/02/17 03:44:58;;;;;;;35.77;6.20;;;;;9.90;99622.00;;;;10038708;29;20212;-77
2022/02/17 03:50:07;;;;;;;34.07;5.80;;;;;9.90;99622.00;;;;10015430;29;20197;-77
2022/02/17 03:55:10;;;;;;;33.87;5.83;;;;;9.80;99616.00;;;;10029485;29;20195;-77
2022/02/17 04:00:17;;;;;;;30.43;7.17;;;;;9.90;99624.00;;;;10030410;29;20205;-77
2022/02/17 04:05:19;;;;;;;34.87;6.73;;;;;9.90;99629.00;;;;10044511;29;20213;-77
2022/02/17 04:10:22;;;;;;;35.17;7.27;;;;;10.00;99653.00;;;;10029190;29;20197;-77
2022/02/17 04:15:25;;;;;;;33.33;6.97;;;;;9.90;99672.00;;;;10013912;29;20205;-77
2022/02/17 04:20:27;;;;;;;29.03;6.27;;;;;9.90;99663.00;;;;10043839;29;20248;-78
2022/02/17 04:25:39;;;;;;;39.63;7.40;;;;;9.90;99688.00;;;;10028352;29;20232;-77
2022/02/17 04:30:47;;;;;;;35.87;8.43;;;;;9.90;99690.00;;;;10014255;29;20249;-78
2022/02/17 04:35:49;;;;;;;35.97;7.33;;;;;9.90;99702.00;;;;10029077;29;20205;-77
2022/02/17 04:46:16;;;;;;;42.00;7.60;;;;;9.90;99724.00;;;;10031711;29;20264;-77
2022/02/17 04:51:18;;;;;;;34.70;7.53;;;;;9.90;99736.00;;;;10050972;29;20227;-78
2022/02/17 04:56:21;;;;;;;40.73;8.47;;;;;9.90;99749.00;;;;10020606;29;20268;-77
2022/02/17 05:01:23;;;;;;;41.53;8.43;;;;;9.90;99747.00;;;;10019822;29;20554;-78
2022/02/17 05:06:43;;;;;;;47.90;8.03;;;;;9.90;99776.00;;;;10035028;29;20217;-77
2022/02/17 05:11:46;;;;;;;38.47;8.03;;;;;9.90;99780.00;;;;10035215;29;20232;-77
2022/02/17 05:16:55;;;;;;;36.60;7.43;;;;;9.90;99787.00;;;;10020100;29;20235;-77
2022/02/17 05:22:00;;;;;;;37.43;8.73;;;;;9.90;99770.00;;;;10026897;29;20234;-78
2022/02/17 05:27:17;;;;;;;37.30;7.53;;;;;9.90;99818.00;;;;10011592;29;20201;-77
2022/02/17 05:32:43;;;;;;;36.87;7.87;;;;;9.90;99821.00;;;;10048926;29;20836;-78
2022/02/17 05:38:08;;;;;;;35.67;7.70;;;;;9.90;99818.00;;;;10036457;29;20209;-77
2022/02/17 05:43:17;;;;;;;36.70;7.47;;;;;9.90;99829.00;;;;10032894;29;20652;-77
2022/02/17 05:48:19;;;;;;;33.23;8.37;;;;;9.80;99845.00;;;;10017879;29;20236;-78
2022/02/17 05:53:21;;;;;;;37.63;8.03;;;;;9.70;99855.00;;;;10033261;29;20201;-77
2022/02/17 05:58:23;;;;;;;37.33;7.97;;;;;9.70;99878.00;;;;10017209;29;20205;-78
2022/02/17 06:03:25;;;;;;;47.00;8.27;;;;;9.70;99876.00;;;;10016327;29;20307;-77
2022/02/17 06:08:26;;;;;;;34.43;7.30;;;;;9.60;99877.00;;;;10017010;29;20197;-77
2022/02/17 06:13:28;;;;;;;31.73;7.40;;;;;9.70;99884.00;;;;10016882;29;20196;-77
2022/02/17 06:18:30;;;;;;;33.80;7.27;;;;;9.60;99895.00;;;;10063583;29;20193;-77
2022/02/17 06:23:32;;;;;;;39.37;7.10;;;;;9.60;99908.00;;;;10047114;29;20732;-77
2022/02/17 06:28:34;;;;;;;38.77;8.50;;;;;9.60;99928.00;;;;10031672;29;20221;-77
2022/02/17 06:33:36;;;;;;;38.67;7.73;;;;;9.60;99933.00;;;;10030182;29;20197;-77
2022/02/17 06:38:38;;;;;;;32.77;7.80;;;;;9.50;99951.00;;;;10030744;29;20276;-77
2022/02/17 06:43:41;;;;;;;34.97;7.33;;;;;9.50;99955.00;;;;10046000;29;20228;-77
2022/02/17 06:48:43;;;;;;;39.67;7.83;;;;;9.50;99981.00;;;;10015780;29;20237;-77
2022/02/17 06:53:45;;;;;;;46.37;7.43;;;;;9.50;99997.00;;;;10031153;29;20292;-77
2022/02/17 06:58:47;;;;;;;36.53;8.43;;;;;9.50;100004.00;;;;10023839;29;20630;-77
2022/02/17 07:03:51;;;;;;;41.10;8.57;;;;;9.50;100000.00;;;;10012934;29;20221;-77
2022/02/17 07:08:53;;;;;;;37.77;8.27;;;;;9.50;100016.00;;;;10029627;29;20201;-77
2022/02/17 07:13:55;;;;;;;42.47;8.60;;;;;9.50;100036.00;;;;10061986;29;20280;-77
2022/02/17 07:18:56;;;;;;;41.70;9.27;;;;;9.50;100045.00;;;;10015121;29;20203;-77
2022/02/17 07:24:00;;;;;;;50.57;9.53;;;;;9.50;100053.00;;;;10014580;29;20232;-77
2022/02/17 07:29:04;;;;;;;46.37;8.90;;;;;9.50;100060.00;;;;10029511;29;20201;-77
2022/02/17 07:34:07;;;;;;;48.73;9.90;;;;;9.70;100068.00;;;;10005220;29;20205;-77
2022/02/17 07:39:09;;;;;;;35.90;7.33;;;;;9.70;100092.00;;;;10029913;29;20232;-77
2022/02/17 07:44:11;;;;;;;35.70;7.73;;;;;9.80;100095.00;;;;10044849;29;20733;-77
2022/02/17 07:49:14;;;;;;;34.07;7.87;;;;;10.30;100119.00;;;;10029613;29;20201;-77
2022/02/17 07:54:16;;;;;;;36.93;7.43;;;;;10.40;100122.00;;;;9999239;29;20210;-77
2022/02/17 07:59:18;;;;;;;48.60;8.40;;;;;10.40;100131.00;;;;10005941;29;20254;-77
2022/02/17 08:04:20;;;;;;;43.37;7.67;;;;;10.50;100135.00;;;;10019079;29;20236;-77
2022/02/17 08:09:22;;;;;;;33.50;7.30;;;;;10.50;100146.00;;;;10007541;29;20729;-77
2022/02/17 08:14:24;;;;;;;35.57;8.27;;;;;10.70;100149.00;;;;10010004;29;20222;-77
2022/02/17 08:19:26;;;;;;;28.17;6.40;;;;;10.40;100157.00;;;;10025322;29;20281;-78
2022/02/17 08:24:28;;;;;;;36.23;7.23;;;;;10.60;100184.00;;;;10027292;29;20723;-77
2022/02/17 08:29:34;;;;;;;34.63;7.87;;;;;10.70;100168.00;;;;10011399;29;20201;-77
2022/02/17 08:34:36;;;;;;;28.90;6.50;;;;;10.90;100183.00;;;;10026126;29;20189;-77
2022/02/17 08:39:38;;;;;;;35.23;7.37;;;;;11.10;100189.00;;;;10030969;29;20240;-78
2022/02/17 08:44:41;;;;;;;29.93;5.73;;;;;11.20;100187.00;;;;10038998;29;20210;-77
2022/02/17 08:49:45;;;;;;;33.43;6.43;;;;;11.50;100171.00;;;;10038189;29;20546;-78
2022/02/17 08:54:47;;;;;;;26.60;5.87;;;;;11.80;100211.00;;;;10036520;29;20208;-78
2022/02/17 08:59:49;;;;;;;28.03;6.20;;;;;12.00;100231.00;;;;10013086;29;20247;-76
2022/02/17 09:04:51;;;;;;;23.77;6.27;;;;;12.50;100217.00;;;;10013820;29;20213;-77
2022/02/17 09:09:53;;;;;;;19.33;4.83;;;;;12.50;100250.00;;;;10028407;29;20653;-78
2022/02/17 09:14:56;;;;;;;30.50;5.50;;;;;12.00;100253.00;;;;10042344;29;20274;-78
2022/02/17 09:19:58;;;;;;;30.17;5.83;;;;;12.00;100247.00;;;;10027804;29;20217;-77
2022/02/17 09:25:00;;;;;;;29.30;6.27;;;;;12.40;100256.00;;;;10019877;29;20259;-78
2022/02/17 09:30:04;;;;;;;29.63;7.43;;;;;12.90;100254.00;;;;10005415;29;20236;-78
2022/02/17 09:35:11;;;;;;;35.20;7.20;;;;;13.30;100273.00;;;;10008449;29;20741;-78
2022/02/17 09:40:12;;;;;;;23.77;6.10;;;;;13.60;100278.00;;;;10049419;29;20217;-78
2022/02/17 09:45:15;;;;;;;22.87;5.20;;;;;13.60;100274.00;;;;10049684;29;20205;-78
2022/02/17 09:50:16;;;;;;;18.17;4.60;;;;;13.60;100295.00;;;;10042817;29;20692;-78
2022/02/17 09:55:18;;;;;;;19.57;4.90;;;;;13.50;100291.00;;;;10033576;29;20275;-78
2022/02/17 10:00:20;;;;;;;14.48;3.58;;;;;13.60;100299.00;;;;10048369;29;20255;-78
2022/02/17 10:05:25;;;;;;;11.73;3.88;;;;;13.80;100306.00;;;;10032962;29;20665;-77
2022/02/17 10:10:39;;;;;;;17.58;4.88;;;;;13.40;100325.00;;;;10032823;29;20245;-78
2022/02/17 10:15:41;;;;;;;20.08;5.05;;;;;13.30;100326.00;;;;10048188;29;20288;-78
2022/02/17 10:20:53;;;;;;;27.20;4.82;;;;;13.90;100344.00;;;;10054510;29;20226;-78
2022/02/17 10:25:57;;;;;;;21.53;4.83;;;;;14.00;100344.00;;;;10055150;29;20204;-78
2022/02/17 10:31:00;;;;;;;30.10;5.60;;;;;14.00;100338.00;;;;10060144;29;20733;-78
2022/02/17 10:36:03;;;;;;;22.38;5.03;;;;;14.80;100367.00;;;;10031517;29;20369;-78
2022/02/17 10:41:05;;;;;;;25.92;5.57;;;;;14.50;100368.00;;;;9992957;29;20635;-78
2022/02/17 10:46:10;;;;;;;15.13;4.40;;;;;13.70;100379.00;;;;9993468;29;20197;-78
2022/02/17 10:51:17;;;;;;;17.27;4.00;;;;;13.30;100373.00;;;;10008897;29;20247;-78
2022/02/17 10:56:23;;;;;;;15.23;4.63;;;;;13.20;100385.00;;;;9993662;29;20205;-77
2022/02/17 11:01:25;;;;;;;20.93;4.10;;;;;13.50;100380.00;;;;10030149;29;20236;-78
2022/02/17 11:06:30;;;;;;;13.43;3.60;;;;;13.10;100370.00;;;;10015158;29;20236;-79
2022/02/17 11:11:32;;;;;;;19.50;5.50;;;;;13.60;100391.00;;;;10045398;29;20189;-78
2022/02/17 11:16:37;;;;;;;18.40;4.53;;;;;14.80;100395.00;;;;10060883;29;20208;-78
2022/02/17 11:21:40;;;;;;;19.35;4.47;;;;;15.00;100393.00;;;;10044798;29;20263;-78
2022/02/17 11:26:42;;;;;;;19.87;4.33;;;;;14.60;100404.00;;;;10045317;29;20202;-77
2022/02/17 11:32:03;;;;;;;19.98;4.22;;;;;15.10;100387.00;;;;10026313;29;20242;-78
2022/02/17 11:37:20;;;;;;;10.15;2.97;;;;;15.80;100362.00;;;;10019257;29;20201;-77
2022/02/17 11:42:30;;;;;;;13.50;3.53;;;;;14.30;100401.00;;;;10060113;29;20299;-78
2022/02/17 11:48:06;;;;;;;15.52;3.63;;;;;15.20;100379.00;;;;10060578;29;20231;-78
2022/02/17 11:53:23;;;;;;;18.92;4.32;;;;;16.30;100365.00;;;;10045396;29;20208;-78
2022/02/17 11:58:40;;;;;;;14.70;3.70;;;;;16.70;100394.00;;;;10058928;29;20231;-78
2022/02/17 12:04:03;;;;;;;8.20;2.28;;;;;16.40;100398.00;;;;10037267;29;20224;-78
2022/02/17 12:09:29;;;;;;;16.33;3.33;;;;;16.40;100411.00;;;;10060324;29;20204;-78
2022/02/17 12:14:52;;;;;;;3.92;1.92;;;;;16.40;100406.00;;;;10084331;29;20231;-78
2022/02/17 12:20:18;;;;;;;11.35;2.47;;;;;14.60;100429.00;;;;10051365;29;20208;-78
2022/02/17 12:25:21;;;;;;;11.05;2.47;;;;;13.70;100447.00;;;;10059665;29;20212;-78
2022/02/17 12:30:25;;;;;;;13.03;2.63;;;;;12.90;100454.00;;;;10000202;29;20205;-78
2022/02/17 12:35:29;;;;;;;11.23;2.47;;;;;12.40;100463.00;;;;10016531;29;20285;-79
2022/02/17 12:40:32;;;;;;;6.50;1.83;;;;;11.90;100460.00;;;;10058736;29;20216;-78
2022/02/17 12:45:40;;;;;;;4.50;1.50;;;;;11.60;100468.00;;;;10010061;29;20255;-78
2022/02/17 12:50:43;;;;;;;8.67;1.90;;;;;11.40;100472.00;;;;9990572;29;20201;-78
2022/02/17 12:55:51;;;;;;;8.70;2.00;;;;;12.30;100473.00;;;;10015611;29;20202;-78
2022/02/17 13:00:54;;;;;;;7.90;2.13;;;;;13.10;100458.00;;;;10012382;29;20255;-78
2022/02/17 13:06:17;;;;;;;11.53;2.17;;;;;14.10;100461.00;;;;10044892;29;20273;-78
2022/02/17 13:11:28;;;;;;;12.23;2.13;;;;;13.80;100476.00;;;;10012354;29;20206;-78
2022/02/17 13:16:31;;;;;;;11.73;2.77;;;;;13.00;100496.00;;;;10030178;29;20202;-78
2022/02/17 13:21:33;;;;;;;6.03;1.90;;;;;14.20;100495.00;;;;10049497;29;20236;-78
2022/02/17 13:26:37;;;;;;;4.97;1.47;;;;;14.50;100493.00;;;;10019296;29;20213;-78
2022/02/17 13:31:39;;;;;;;6.23;1.60;;;;;14.80;100479.00;;;;10014797;29;20197;-78
2022/02/17 13:36:43;;;;;;;9.52;2.20;;;;;15.30;100499.00;;;;10036409;29;20224;-79
2022/02/17 13:42:10;;;;;;;7.32;2.00;;;;;14.70;100504.00;;;;9995690;29;20225;-79
2022/02/17 13:47:13;;;;;;;11.25;2.25;;;;;14.80;100517.00;;;;10009910;29;20232;-79
2022/02/17 13:52:20;;;;;;;10.13;2.37;;;;;14.80;100536.00;;;;10063489;29;20699;-78
2022/02/17 13:57:24;;;;;;;9.00;2.22;;;;;15.00;100535.00;;;;10063757;29;20213;-78
2022/02/17 14:02:28;;;;;;;7.90;2.67;;;;;15.60;100534.00;;;;10031941;29;20589;-79
2022/02/17 14:07:30;;;;;;;10.25;2.33;;;;;15.60;100544.00;;;;10031806;29;20197;-79
2022/02/17 14:12:32;;;;;;;9.50;2.53;;;;;15.50;100565.00;;;;10046765;29;20233;-78
2022/02/17 14:17:34;;;;;;;12.63;2.53;;;;;13.50;100560.00;;;;10012748;29;20300;-79
2022/02/17 14:22:36;;;;;;;8.53;2.20;;;;;14.10;100569.00;;;;10063112;29;20689;-79
2022/02/17 14:27:38;;;;;;;7.37;2.40;;;;;13.20;100594.00;;;;10031577;29;20220;-78
2022/02/17 14:32:40;;;;;;;9.97;2.33;;;;;13.40;100599.00;;;;9998142;29;20296;-78
2022/02/17 14:37:44;;;;;;;9.23;2.30;;;;;13.40;100605.00;;;;9994271;29;20206;-78
2022/02/17 14:42:48;;;;;;;9.63;2.37;;;;;13.10;100598.00;;;;10000413;29;20249;-78
2022/02/17 14:47:50;;;;;;;11.70;2.47;;;;;12.70;100599.00;;;;10017197;29;20233;-79
2022/02/17 14:52:56;;;;;;;7.13;1.93;;;;;12.60;100577.00;;;;10000163;29;20228;-79
2022/02/17 14:57:58;;;;;;;8.83;2.07;;;;;12.40;100600.00;;;;9989878;29;20267;-79
2022/02/17 15:03:00;;;;;;;9.23;1.70;;;;;12.40;100613.00;;;;10009250;29;20213;-79
2022/02/17 15:08:02;;;;;;;7.27;1.80;;;;;12.40;100638.00;;;;10056111;29;20204;-78
2022/02/17 15:13:04;;;;;;;6.40;1.70;;;;;12.30;100628.00;;;;10030453;29;20209;-78
2022/02/17 15:18:06;;;;;;;10.30;2.07;;;;;12.40;100646.00;;;;10022908;29;20200;-78
2022/02/17 15:23:08;;;;;;;10.57;1.70;;;;;12.30;100639.00;;;;10014692;29;20581;-78
2022/02/17 15:28:10;;;;;;;9.07;1.43;;;;;12.10;100643.00;;;;10026695;29;20308;-78
2022/02/17 15:33:13;;;;;;;10.43;1.53;;;;;11.70;100641.00;;;;9993671;29;20201;-78
2022/02/17 15:38:36;;;;;;;4.03;1.70;;;;;11.30;100660.00;;;;10001695;29;20200;-78
2022/02/17 15:43:38;;;;;;;4.83;1.23;;;;;11.30;100652.00;;;;10026567;29;20258;-77
2022/02/17 15:48:40;;;;;;;5.90;1.50;;;;;11.10;100673.00;;;;10017083;29;20246;-78
2022/02/17 15:53:42;;;;;;;8.47;1.87;;;;;11.20;100657.00;;;;9981914;29;20198;-78
2022/02/17 15:58:45;;;;;;;9.37;1.90;;;;;11.40;100647.00;;;;10025615;29;20212;-77
2022/02/17 16:03:47;;;;;;;9.80;2.00;;;;;11.30;100646.00;;;;10009317;29;20229;-78
2022/02/17 16:08:49;;;;;;;6.57;2.20;;;;;11.20;100662.00;;;;10009129;29;20209;-77
2022/02/17 16:13:51;;;;;;;8.33;2.20;;;;;11.20;100670.00;;;;10027227;29;20197;-77
2022/02/17 16:18:54;;;;;;;5.53;1.93;;;;;11.00;100682.00;;;;10043465;29;20228;-77
2022/02/17 16:23:57;;;;;;;12.70;2.37;;;;;10.70;100676.00;;;;10003773;29;20225;-77
2022/02/17 16:28:59;;;;;;;11.40;2.47;;;;;10.70;100680.00;;;;9990581;29;20546;-77
2022/02/17 16:34:02;;;;;;;8.13;2.40;;;;;10.70;100665.00;;;;10036691;29;20264;-77
2022/02/17 16:39:11;;;;;;;13.87;2.57;;;;;10.70;100680.00;;;;10018962;29;20237;-77
2022/02/17 16:44:13;;;;;;;11.73;3.37;;;;;10.50;100681.00;;;;10025863;29;20224;-77
2022/02/17 16:49:20;;;;;;;13.33;3.23;;;;;10.40;100708.00;;;;10034313;29;20209;-78
2022/02/17 16:54:22;;;;;;;10.53;2.87;;;;;10.30;100699.00;;;;10049912;29;20229;-78
2022/02/17 16:59:24;;;;;;;8.60;2.67;;;;;10.20;100681.00;;;;10019287;29;20783;-77
2022/02/17 17:04:26;;;;;;;13.47;2.67;;;;;10.20;100705.00;;;;10005874;29;20225;-78
2022/02/17 17:09:28;;;;;;;9.30;2.50;;;;;10.10;100697.00;;;;10068155;29;20217;-77
2022/02/17 17:14:30;;;;;;;10.43;2.57;;;;;10.10;100686.00;;;;10018309;29;20653;-78
2022/02/17 17:19:32;;;;;;;8.53;2.57;;;;;10.00;100693.00;;;;10018580;29;20197;-78
2022/02/17 17:24:33;;;;;;;16.43;2.67;;;;;9.90;100706.00;;;;10018831;29;20257;-79
2022/02/17 17:29:36;;;;;;;16.53;6.00;;;;;9.90;100699.00;;;;10033352;29;20284;-78
2022/02/17 17:34:38;;;;;;;13.67;2.60;;;;;9.90;100703.00;;;;10049337;29;20197;-79
2022/02/17 17:39:39;;;;;;;10.97;2.70;;;;;9.80;100691.00;;;;10033343;29;20201;-79
2022/02/17 17:50:03;;;;;;;12.03;2.17;;;;;9.80;100685.00;;;;10018417;29;20197;-79
2022/02/17 17:55:05;;;;;;;10.93;2.60;;;;;9.80;100705.00;;;;10032555;29;20248;-78
2022/02/17 18:00:14;;;;;;;11.83;2.67;;;;;9.80;100698.00;;;;10032601;29;20200;-78
2022/02/17 18:05:15;;;;;;;12.60;2.37;;;;;9.80;100714.00;;;;10048192;29;20237;-78
2022/02/17 18:10:18;;;;;;;11.53;2.17;;;;;9.80;100707.00;;;;10048135;29;20237;-79
2022/02/17 18:15:20;;;;;;;6.10;1.60;;;;;9.80;100708.00;;;;10047863;29;20648;-78
2022/02/17 18:20:22;;;;;;;9.07;2.00;;;;;9.70;100711.00;;;;10032343;29;20205;-79
2022/02/17 18:25:24;;;;;;;8.10;1.70;;;;;9.40;100725.00;;;;10047060;29;20273;-79
2022/02/17 18:30:27;;;;;;;8.40;2.00;;;;;9.00;100726.00;;;;10046676;29;20424;-79
2022/02/17 18:35:29;;;;;;;10.63;2.47;;;;;8.70;100745.00;;;;10047171;29;20213;-79
2022/02/17 18:40:34;;;;;;;16.37;2.97;;;;;8.40;100747.00;;;;10031020;29;20234;-79
2022/02/17 18:45:37;;;;;;;22.80;3.07;;;;;8.00;100768.00;;;;10032234;29;20221;-79
2022/02/17 18:50:40;;;;;;;14.63;2.97;;;;;7.70;100779.00;;;;10015859;29;20201;-79
2022/02/17 18:55:44;;;;;;;22.13;3.83;;;;;7.50;100778.00;;;;10016508;29;20207;-80
2022/02/17 19:00:46;;;;;;;17.60;3.53;;;;;7.40;100775.00;;;;10032348;29;20260;-81
2022/02/17 19:05:49;;;;;;;20.77;5.20;;;;;7.30;100754.00;;;;10013807;29;20237;-80
2022/02/17 19:10:53;;;;;;;16.93;3.17;;;;;7.20;100743.00;;;;9978830;29;20205;-81
2022/02/17 19:15:58;;;;;;;17.87;4.00;;;;;7.20;100757.00;;;;9978051;29;20237;-81
2022/02/17 19:21:02;;;;;;;22.00;5.17;;;;;7.20;100739.00;;;;9996742;29;20288;-81
2022/02/17 19:26:08;;;;;;;23.97;4.70;;;;;7.20;100712.00;;;;10053148;29;20234;-80
2022/02/17 19:31:15;;;;;;;21.83;7.33;;;;;7.20;100735.00;;;;10013127;29;20360;-80
2022/02/17 19:36:17;;;;;;;24.00;6.00;;;;;7.10;100748.00;;;;10014699;29;20257;-80
2022/02/17 19:41:20;;;;;;;12.60;3.50;;;;;7.10;100745.00;;;;10030171;29;20303;-79
2022/02/17 19:46:22;;;;;;;16.67;4.33;;;;;7.00;100725.00;;;;10029826;29;20197;-80
2022/02/17 19:51:25;;;;;;;19.97;5.03;;;;;6.90;100732.00;;;;10030391;29;20245;-79
2022/02/17 19:56:27;;;;;;;21.40;5.70;;;;;6.80;100725.00;;;;10029629;29;20212;-79
2022/02/17 20:01:34;;;;;;;24.30;4.67;;;;;6.80;100736.00;;;;10028809;29;20558;-80
2022/02/17 20:06:39;;;;;;;17.57;4.60;;;;;6.90;100722.00;;;;10028949;29;20212;-80
2022/02/17 20:11:42;;;;;;;29.07;6.13;;;;;6.90;100717.00;;;;10028602;29;20197;-80
2022/02/17 20:16:46;;;;;;;27.63;5.70;;;;;7.00;100718.00;;;;10043930;29;20602;-79
2022/02/17 20:21:48;;;;;;;29.87;6.03;;;;;7.10;100720.00;;;;10043040;29;20220;-79
2022/02/17 20:26:51;;;;;;;25.27;5.13;;;;;7.20;100716.00;;;;10050468;29;20564;-79
2022/02/17 20:31:54;;;;;;;27.07;5.47;;;;;7.30;100722.00;;;;10081768;29;20192;-79
2022/02/17 20:36:56;;;;;;;28.27;5.83;;;;;7.40;100717.00;;;;10051356;29;20690;-79
2022/02/17 20:42:00;;;;;;;29.87;6.20;;;;;7.40;100728.00;;;;10044086;29;20212;-79
2022/02/17 20:52:24;;;;;;;32.37;7.10;;;;;7.40;100711.00;;;;10066076;29;20200;-79
2022/02/17 20:57:26;;;;;;;24.10;5.03;;;;;7.40;100718.00;;;;10065780;29;20196;-78
2022/02/17 21:02:28;;;;;;;30.23;5.83;;;;;7.40;100735.00;;;;10050148;29;20648;-79
2022/02/17 21:07:30;;;;;;;34.03;6.43;;;;;7.40;100721.00;;;;9995691;29;20241;-79
2022/02/17 21:12:54;;;;;;;30.77;6.00;;;;;7.40;100719.00;;;;9989431;29;20205;-78
2022/02/17 21:17:56;;;;;;;31.17;5.23;;;;;7.50;100733.00;;;;9973962;29;20804;-79
2022/02/17 21:22:58;;;;;;;20.70;4.60;;;;;7.60;100742.00;;;;9989232;29;20321;-78
2022/02/17 21:28:00;;;;;;;31.90;6.67;;;;;7.70;100745.00;;;;9975208;29;20197;-78
2022/02/17 21:33:02;;;;;;;24.00;5.50;;;;;7.70;100744.00;;;;10011305;29;20615;-78
2022/02/17 21:38:06;;;;;;;22.10;5.33;;;;;7.70;100744.00;;;;10032129;29;20204;-79
2022/02/17 21:43:07;;;;;;;31.60;5.80;;;;;7.60;100740.00;;;;10034047;29;20572;-78
2022/02/17 21:48:09;;;;;;;23.00;5.30;;;;;7.70;100744.00;;;;10033405;29;20236;-78
2022/02/17 21:53:31;;;;;;;21.07;4.97;;;;;7.60;100738.00;;;;10021127;29;20258;-78
2022/02/17 21:58:33;;;;;;;22.03;5.23;;;;;7.60;100742.00;;;;9995458;29;20726;-78
2022/02/17 22:03:35;;;;;;;23.73;5.60;;;;;7.60;100751.00;;;;10012117;29;20252;-79
2022/02/17 22:08:37;;;;;;;20.43;6.00;;;;;7.60;100761.00;;;;10033030;29;20197;-79
2022/02/17 22:13:39;;;;;;;21.60;4.47;;;;;7.60;100753.00;;;;10017396;29;20257;-78
2022/02/17 22:18:43;;;;;;;15.83;4.40;;;;;7.60;100743.00;;;;10017249;29;20257;-78
2022/02/17 22:23:45;;;;;;;28.57;4.50;;;;;7.50;100737.00;;;;10017586;29;20261;-78
2022/02/17 22:28:47;;;;;;;29.23;6.30;;;;;7.40;100721.00;;;;10032733;29;20203;-78
2022/02/17 22:33:49;;;;;;;21.97;3.70;;;;;7.40;100732.00;;;;10032207;29;20193;-78
2022/02/17 22:38:55;;;;;;;22.93;5.40;;;;;7.40;100730.00;;;;10016532;29;20245;-79
2022/02/17 22:43:57;;;;;;;26.87;5.27;;;;;7.40;100734.00;;;;10032181;29;20224;-79
2022/02/17 22:48:59;;;;;;;21.60;4.63;;;;;7.40;100734.00;;;;10031702;29;20538;-78
2022/02/17 22:54:01;;;;;;;28.17;6.20;;;;;7.40;100720.00;;;;10017092;29;20253;-79
2022/02/17 22:59:03;;;;;;;26.73;5.30;;;;;7.40;100719.00;;;;10046910;29;20246;-79
2022/02/17 23:04:05;;;;;;;30.60;5.67;;;;;7.50;100737.00;;;;10013879;29;20244;-79
2022/02/17 23:14:27;;;;;;;27.07;5.33;;;;;7.50;100740.00;;;;10016133;29;20208;-79
2022/02/17 23:19:29;;;;;;;29.30;5.77;;;;;7.50;100728.00;;;;10030674;29;20197;-79
2022/02/17 23:24:31;;;;;;;35.30;5.13;;;;;7.60;100731.00;;;;10012941;29;20235;-79
2022/02/17 23:29:33;;;;;;;35.30;7.27;;;;;7.60;100724.00;;;;10012684;29;20242;-78
2022/02/17 23:34:37;;;;;;;34.37;7.30;;;;;7.70;100704.00;;;;10023927;29;20226;-78
2022/02/17 23:39:39;;;;;;;32.97;6.13;;;;;7.70;100720.00;;;;10006278;29;20250;-79
2022/02/17 23:44:41;;;;;;;29.03;6.50;;;;;7.80;100709.00;;;;9975873;29;20225;-79
2022/02/17 23:49:43;;;;;;;39.40;6.93;;;;;7.80;100711.00;;;;9975676;29;20206;-78
2022/02/17 23:54:46;;;;;;;26.60;6.00;;;;;7.80;100697.00;;;;9975718;29;20193;-78
2022/02/17 23:59:48;;;;;;;30.37;6.23;;;;;7.80;100687.00;;;;10011911;29;20217;-78
